createdAt,value
2018-05-10T00:17:02.219Z,9.50
2018-05-10T00:37:31.311Z,8.60
2018-05-10T00:57:58.295Z,9.13
2018-05-10T01:18:28.228Z,11.43
2018-05-10T01:38:55.288Z,10.43
2018-05-10T01:41:25.824Z,10.30
2018-05-10T02:01:52.896Z,9.63
2018-05-10T02:22:20.983Z,9.80
2018-05-10T02:42:48.967Z,9.20
2018-05-10T03:03:15.522Z,8.70
2018-05-10T03:23:42.786Z,7.30
2018-05-10T03:44:10.467Z,6.83
2018-05-10T04:25:32.861Z,5.70
2018-05-10T04:46:00.547Z,4.93
2018-05-10T04:57:29.088Z,5.80
2018-05-10T05:17:56.053Z,5.47
2018-05-10T05:38:23.118Z,5.80
2018-05-10T05:58:49.871Z,8.03
2018-05-10T06:19:16.561Z,7.53
2018-05-10T07:00:20.076Z,4.93
2018-05-10T07:20:46.586Z,4.70
2018-05-10T07:41:12.991Z,7.10
2018-05-10T08:01:39.134Z,6.67
2018-05-10T08:22:05.166Z,4.33
2018-05-10T08:42:31.210Z,5.03
2018-05-10T09:02:57.247Z,4.07
2018-05-10T09:23:23.810Z,3.83
2018-05-10T09:43:50.050Z,4.43
2018-05-10T10:04:16.196Z,4.70
2018-05-10T10:24:45.821Z,4.10
2018-05-10T10:45:12.792Z,4.07
2018-05-10T11:05:38.621Z,4.00
2018-05-10T18:13:42.884Z,5.50
2018-05-10T18:34:12.462Z,6.83
2018-05-10T18:54:42.575Z,6.33
2018-05-10T19:15:14.713Z,6.83
2018-05-10T19:35:46.662Z,7.37
2018-05-10T19:56:17.414Z,8.63
2018-05-10T20:16:46.726Z,9.57
2018-05-10T20:37:16.138Z,7.70
2018-05-10T20:48:43.361Z,7.10
2018-05-10T21:29:56.827Z,5.20
2018-05-10T21:50:29.184Z,5.57
2018-05-10T22:10:59.171Z,4.50
2018-05-10T22:31:28.697Z,3.50
2018-05-10T22:51:58.243Z,3.40
2018-05-10T23:12:31.790Z,4.13
2018-05-10T23:27:06.765Z,3.70
2018-05-10T23:29:37.826Z,4.40
2018-05-10T23:50:08.458Z,4.50
